createdAt,value
2019-02-02T00:02:24.215Z,5.20
2019-02-02T00:04:51.939Z,5.20
2019-02-02T00:07:19.713Z,5.10
2019-02-02T00:09:50.344Z,5.10
2019-02-02T00:12:17.931Z,5.20
2019-02-02T00:14:46.617Z,5.20
2019-02-02T00:17:14.271Z,5.30
2019-02-02T00:22:44.392Z,5.50
2019-02-02T00:25:12.134Z,5.70
2019-02-02T00:27:41.493Z,5.70
2019-02-02T00:30:10.980Z,5.80
2019-02-02T00:32:40.145Z,5.90
2019-02-02T00:35:08.548Z,6.10
2019-02-02T00:37:36.496Z,6.10
2019-02-02T00:40:06.047Z,6.30
2019-02-02T00:42:33.832Z,6.20
2019-02-02T00:45:01.595Z,6.30
2019-02-02T00:47:30.716Z,6.40
2019-02-02T00:49:58.288Z,6.40
2019-02-02T00:52:26.057Z,6.50
2019-02-02T00:54:53.876Z,6.50
2019-02-02T00:57:21.543Z,6.50
2019-02-02T00:59:49.245Z,6.60
2019-02-02T01:02:17.282Z,6.70
2019-02-02T01:04:45.001Z,6.70
2019-02-02T01:07:12.564Z,6.70
2019-02-02T01:09:41.175Z,6.70
2019-02-02T01:12:08.659Z,6.70
2019-02-02T01:14:36.575Z,6.60
2019-02-02T01:17:04.655Z,6.60
2019-02-02T01:19:32.375Z,6.60
2019-02-02T01:24:46.697Z,6.50
2019-02-02T01:27:14.281Z,6.50
2019-02-02T01:29:42.938Z,6.50
2019-02-02T01:32:13.806Z,6.50
2019-02-02T01:34:40.370Z,6.50
2019-02-02T01:37:08.003Z,6.60
2019-02-02T01:39:35.666Z,6.60
2019-02-02T01:42:03.540Z,6.70
2019-02-02T01:44:31.203Z,6.70
2019-02-02T01:46:59.014Z,6.80
2019-02-02T01:49:26.617Z,6.90
2019-02-02T01:51:54.344Z,6.90
2019-02-02T01:54:22.516Z,7.00
2019-02-02T01:56:50.614Z,7.00
2019-02-02T01:59:18.315Z,7.10
2019-02-02T02:01:45.903Z,7.10
2019-02-02T02:04:13.583Z,7.10
2019-02-02T02:06:46.997Z,7.20
2019-02-02T02:09:14.858Z,7.20
2019-02-02T02:11:42.598Z,7.40
2019-02-02T02:14:10.056Z,7.50
2019-02-02T02:16:37.823Z,7.60
2019-02-02T02:19:05.736Z,7.60
2019-02-02T02:21:33.666Z,7.70
2019-02-02T02:24:01.431Z,7.80
2019-02-02T02:26:31.284Z,7.80
2019-02-02T02:29:00.122Z,7.80
2019-02-02T02:31:28.460Z,7.90
2019-02-02T02:33:56.058Z,7.90
2019-02-02T02:36:23.547Z,7.90
2019-02-02T02:38:53.462Z,7.90
2019-02-02T02:41:21.249Z,7.90
2019-02-02T02:43:48.715Z,7.90
2019-02-02T02:46:16.235Z,8.00
2019-02-02T02:48:43.693Z,8.10
2019-02-02T02:51:11.485Z,8.20
2019-02-02T02:53:39.127Z,8.20
2019-02-02T02:56:06.848Z,8.20
2019-02-02T02:58:41.415Z,8.00
2019-02-02T03:01:04.593Z,8.30
2019-02-02T03:03:32.665Z,8.30
2019-02-02T03:06:00.502Z,8.30
2019-02-02T03:08:28.090Z,8.30
2019-02-02T03:10:55.632Z,8.30
2019-02-02T03:13:23.246Z,8.30
2019-02-02T03:15:52.029Z,8.30
2019-02-02T03:18:22.120Z,8.30
2019-02-02T03:20:49.650Z,8.30
2019-02-02T03:23:17.645Z,8.20
2019-02-02T03:25:45.204Z,8.30
2019-02-02T03:28:12.615Z,8.40
2019-02-02T03:30:40.050Z,8.50
2019-02-02T03:33:09.073Z,8.60
2019-02-02T03:35:36.800Z,8.70
2019-02-02T03:38:04.796Z,8.70
2019-02-02T03:40:32.950Z,8.70
2019-02-02T03:43:00.644Z,8.90
2019-02-02T03:45:28.131Z,8.80
2019-02-02T03:47:55.969Z,8.80
2019-02-02T03:50:23.599Z,8.80
2019-02-02T03:52:51.443Z,8.90
2019-02-02T03:55:19.175Z,8.90
2019-02-02T03:57:47.045Z,8.90
2019-02-02T04:00:17.797Z,8.90
2019-02-02T04:02:45.988Z,9.00
2019-02-02T04:05:19.530Z,9.00
2019-02-02T04:07:47.938Z,9.00
2019-02-02T04:10:15.831Z,9.00
2019-02-02T04:12:43.845Z,9.00
2019-02-02T04:15:13.043Z,9.00
2019-02-02T04:17:40.833Z,8.90
2019-02-02T04:20:13.113Z,8.90
2019-02-02T04:22:40.866Z,8.90
2019-02-02T04:25:08.939Z,8.80
2019-02-02T04:27:37.321Z,8.70
2019-02-02T04:30:08.636Z,8.50
2019-02-02T04:35:17.233Z,8.20
2019-02-02T04:37:45.220Z,8.10
2019-02-02T04:40:13.687Z,8.10
2019-02-02T04:42:41.655Z,8.00
2019-02-02T04:45:10.471Z,7.90
2019-02-02T04:47:38.481Z,7.80
2019-02-02T04:50:09.377Z,7.80
2019-02-02T04:52:37.131Z,7.70
2019-02-02T04:55:05.201Z,7.70
2019-02-02T04:57:32.877Z,7.70
2019-02-02T05:00:00.519Z,7.60
2019-02-02T05:02:30.307Z,7.60
2019-02-02T05:04:58.171Z,7.60
2019-02-02T05:07:25.750Z,7.60
2019-02-02T05:09:53.518Z,7.70
2019-02-02T05:12:21.527Z,7.70
2019-02-02T05:14:49.161Z,7.80
2019-02-02T05:17:16.837Z,7.80
2019-02-02T05:19:44.423Z,7.80
2019-02-02T05:22:12.339Z,8.00
2019-02-02T05:24:40.171Z,8.10
2019-02-02T05:27:08.116Z,8.30
2019-02-02T05:29:41.588Z,8.50
2019-02-02T05:32:05.672Z,8.60
2019-02-02T05:34:33.586Z,8.60
2019-02-02T05:37:01.287Z,8.60
2019-02-02T05:39:28.819Z,8.60
2019-02-02T05:41:56.828Z,8.80
2019-02-02T05:44:24.574Z,8.90
2019-02-02T05:46:52.259Z,8.90
2019-02-02T05:49:20.209Z,9.00
2019-02-02T05:51:47.975Z,9.10
2019-02-02T05:54:15.773Z,9.30
2019-02-02T05:56:43.285Z,9.40
2019-02-02T05:59:10.811Z,9.50
2019-02-02T06:01:40.283Z,9.40
2019-02-02T06:04:08.396Z,9.30
2019-02-02T06:06:36.265Z,9.10
2019-02-02T06:09:07.741Z,9.00
2019-02-02T06:11:36.152Z,8.80
2019-02-02T06:14:04.358Z,8.70
2019-02-02T06:16:33.988Z,8.50
2019-02-02T06:19:01.981Z,8.40
2019-02-02T06:21:29.364Z,8.30
2019-02-02T06:23:58.132Z,8.30
2019-02-02T06:26:25.835Z,8.20
2019-02-02T06:28:54.498Z,8.20
2019-02-02T06:31:23.486Z,8.20
2019-02-02T06:33:51.052Z,8.10
2019-02-02T06:36:18.748Z,8.30
2019-02-02T06:38:46.344Z,8.30
2019-02-02T06:41:13.801Z,8.40
2019-02-02T06:43:41.461Z,8.50
2019-02-02T06:46:09.054Z,8.50
2019-02-02T06:48:37.683Z,8.60
2019-02-02T06:51:05.594Z,8.40
2019-02-02T06:53:33.341Z,8.60
2019-02-02T06:56:00.829Z,8.60
2019-02-02T06:58:28.381Z,8.70
2019-02-02T07:00:55.912Z,8.70
2019-02-02T07:03:23.635Z,8.80
2019-02-02T07:05:51.442Z,8.80
2019-02-02T07:08:18.994Z,8.80
2019-02-02T07:10:46.623Z,8.80
2019-02-02T07:13:14.107Z,8.90
2019-02-02T07:15:42.108Z,8.90
2019-02-02T07:18:10.114Z,8.90
2019-02-02T07:20:37.876Z,9.10
2019-02-02T07:23:05.433Z,9.00
2019-02-02T07:25:33.239Z,8.90
2019-02-02T07:28:01.149Z,9.10
2019-02-02T07:30:29.850Z,9.10
2019-02-02T07:32:57.871Z,9.20
2019-02-02T07:35:25.778Z,9.30
2019-02-02T07:37:53.429Z,9.30
2019-02-02T07:40:21.699Z,9.40
2019-02-02T07:42:49.513Z,9.50
2019-02-02T07:45:23.399Z,9.60
2019-02-02T07:47:50.954Z,9.60
2019-02-02T07:50:18.782Z,9.50
2019-02-02T07:52:46.558Z,9.30
2019-02-02T07:55:16.480Z,9.50
2019-02-02T07:57:44.433Z,9.50
2019-02-02T08:00:39.772Z,9.40
2019-02-02T08:03:00.008Z,9.40
2019-02-02T08:05:29.237Z,9.50
2019-02-02T08:07:58.909Z,9.60
2019-02-02T08:10:26.803Z,9.70
2019-02-02T08:13:01.236Z,9.70
2019-02-02T08:15:36.969Z,9.70
2019-02-02T08:18:05.974Z,9.70
2019-02-02T08:20:36.949Z,9.80
2019-02-02T08:23:19.735Z,9.80
2019-02-02T08:25:47.934Z,9.80
2019-02-02T08:28:21.756Z,9.90
2019-02-02T08:31:12.040Z,9.90
2019-02-02T08:33:45.410Z,9.90
2019-02-02T08:36:13.210Z,10.00
2019-02-02T08:38:40.788Z,10.00
2019-02-02T08:41:08.451Z,10.10
2019-02-02T08:43:36.276Z,10.10
2019-02-02T08:46:04.035Z,10.20
2019-02-02T08:48:31.618Z,10.40
2019-02-02T08:50:59.445Z,10.40
2019-02-02T08:53:27.273Z,10.60
2019-02-02T08:55:55.843Z,10.70
2019-02-02T08:58:27.434Z,10.70
2019-02-02T09:01:03.773Z,10.80
2019-02-02T09:03:27.498Z,10.80
2019-02-02T09:05:55.333Z,10.80
2019-02-02T09:08:23.201Z,10.80
2019-02-02T09:10:51.096Z,10.80
2019-02-02T09:13:18.866Z,10.90
2019-02-02T09:15:48.154Z,11.00
2019-02-02T09:18:15.719Z,11.10
2019-02-02T09:20:43.708Z,11.20
2019-02-02T09:23:11.510Z,11.30
2019-02-02T09:25:39.191Z,11.50
2019-02-02T09:28:06.916Z,11.60
2019-02-02T09:30:36.795Z,11.80
2019-02-02T09:33:05.585Z,11.80
2019-02-02T09:35:33.064Z,12.00
2019-02-02T09:38:00.710Z,12.10
2019-02-02T09:40:28.308Z,12.20
2019-02-02T09:42:56.010Z,12.50
2019-02-02T09:45:24.840Z,12.60
2019-02-02T09:47:52.800Z,12.60
2019-02-02T09:50:28.287Z,12.50
2019-02-02T09:52:57.254Z,12.50
2019-02-02T09:55:25.328Z,12.50
2019-02-02T09:58:00.089Z,12.60
2019-02-02T10:00:31.279Z,12.60
2019-02-02T10:02:59.963Z,12.70
2019-02-02T10:05:28.732Z,12.80
2019-02-02T10:07:57.536Z,12.90
2019-02-02T10:10:27.673Z,13.10
2019-02-02T10:12:55.651Z,13.00
2019-02-02T10:15:23.394Z,13.10
2019-02-02T10:17:52.010Z,13.30
2019-02-02T10:20:21.946Z,13.60
2019-02-02T10:22:49.515Z,13.80
2019-02-02T10:25:25.493Z,13.70
2019-02-02T10:27:59.155Z,13.70
2019-02-02T10:30:42.204Z,13.80
2019-02-02T10:33:13.515Z,13.90
2019-02-02T10:35:42.450Z,13.90
2019-02-02T10:38:10.298Z,14.00
2019-02-02T10:40:38.072Z,14.00
2019-02-02T10:43:05.928Z,14.00
2019-02-02T10:45:33.631Z,14.10
2019-02-02T10:48:02.465Z,14.10
2019-02-02T10:50:33.797Z,14.20
2019-02-02T10:53:01.346Z,14.30
2019-02-02T10:55:29.135Z,14.30
2019-02-02T10:57:56.714Z,14.30
2019-02-02T11:00:27.651Z,14.10
2019-02-02T11:02:55.547Z,14.10
2019-02-02T11:05:23.308Z,14.10
2019-02-02T11:07:54.599Z,14.20
2019-02-02T11:10:25.163Z,14.80
2019-02-02T11:12:53.926Z,15.20
2019-02-02T11:15:22.010Z,16.10
2019-02-02T11:17:49.942Z,16.60
2019-02-02T11:20:21.418Z,16.70
2019-02-02T11:22:50.693Z,17.30
2019-02-02T11:25:19.629Z,18.40
2019-02-02T11:27:47.660Z,19.40
2019-02-02T11:30:16.339Z,20.90
2019-02-02T11:32:44.667Z,22.80
2019-02-02T11:35:13.662Z,24.30
2019-02-02T11:37:42.261Z,25.70
2019-02-02T11:40:14.612Z,27.10
2019-02-02T11:42:43.656Z,27.90
2019-02-02T11:45:13.018Z,28.30
2019-02-02T11:47:40.703Z,28.30
2019-02-02T11:50:11.719Z,27.30
2019-02-02T11:52:39.370Z,27.80
2019-02-02T11:55:09.543Z,28.00
2019-02-02T11:57:37.870Z,28.70
2019-02-02T12:00:19.287Z,30.30
2019-02-02T12:02:51.803Z,31.80
2019-02-02T12:05:19.970Z,32.50
2019-02-02T12:07:47.940Z,31.10
2019-02-02T12:10:17.782Z,28.50
2019-02-02T12:12:48.777Z,26.20
2019-02-02T12:15:17.371Z,24.50
2019-02-02T12:17:45.684Z,23.30
2019-02-02T12:20:15.285Z,22.40
2019-02-02T12:22:43.002Z,21.50
2019-02-02T12:25:11.095Z,21.10
2019-02-02T12:27:38.909Z,20.70
2019-02-02T12:30:14.513Z,20.70
2019-02-02T12:32:43.357Z,20.70
2019-02-02T12:35:15.601Z,22.40
2019-02-02T12:37:43.198Z,22.80
2019-02-02T12:40:11.655Z,22.00
2019-02-02T12:42:39.861Z,21.60
2019-02-02T12:45:18.884Z,21.60
2019-02-02T12:47:46.635Z,21.40
2019-02-02T12:50:16.323Z,20.50
2019-02-02T12:52:44.076Z,19.60
2019-02-02T12:55:12.236Z,18.80
2019-02-02T12:57:41.570Z,18.10
2019-02-02T13:00:14.304Z,17.50
2019-02-02T13:02:51.679Z,17.10
2019-02-02T13:05:23.549Z,16.90
2019-02-02T13:07:52.427Z,16.50
2019-02-02T13:10:24.680Z,16.20
2019-02-02T13:12:53.104Z,15.90
2019-02-02T13:15:20.879Z,15.80
2019-02-02T13:17:48.662Z,15.70
2019-02-02T13:20:16.613Z,15.40
2019-02-02T13:22:44.420Z,15.30
2019-02-02T13:25:15.047Z,15.10
2019-02-02T13:27:43.914Z,15.00
2019-02-02T13:30:16.413Z,14.80
2019-02-02T13:32:49.733Z,14.70
2019-02-02T13:35:15.087Z,14.60
2019-02-02T13:37:42.871Z,14.50
2019-02-02T13:40:14.482Z,14.40
2019-02-02T13:42:42.435Z,14.20
2019-02-02T13:45:11.440Z,14.10
2019-02-02T13:47:46.441Z,13.90
2019-02-02T13:50:20.869Z,13.80
2019-02-02T13:52:53.086Z,13.70
2019-02-02T13:55:26.649Z,13.50
2019-02-02T13:57:54.849Z,13.40
2019-02-02T14:00:27.279Z,13.20
2019-02-02T14:03:03.003Z,13.20
2019-02-02T14:05:31.659Z,13.00
2019-02-02T14:08:07.214Z,13.10
2019-02-02T14:10:35.275Z,13.10
2019-02-02T14:13:04.612Z,12.90
2019-02-02T14:15:33.347Z,13.10
2019-02-02T14:18:01.222Z,13.00
2019-02-02T14:20:33.083Z,12.90
2019-02-02T14:23:03.471Z,12.80
2019-02-02T14:25:35.255Z,12.70
2019-02-02T14:28:08.270Z,12.60
2019-02-02T14:30:36.630Z,12.60
2019-02-02T14:33:13.814Z,12.40
2019-02-02T14:35:34.454Z,12.40
2019-02-02T14:38:02.337Z,12.20
2019-02-02T14:40:30.330Z,12.20
2019-02-02T14:42:58.394Z,12.10
2019-02-02T14:45:27.538Z,12.00
2019-02-02T14:47:56.410Z,11.90
2019-02-02T14:50:24.857Z,11.80
2019-02-02T14:52:53.016Z,11.60
2019-02-02T14:55:26.814Z,11.70
2019-02-02T14:57:55.147Z,11.70
2019-02-02T15:00:26.077Z,11.70
2019-02-02T15:02:55.668Z,11.60
2019-02-02T15:05:23.423Z,11.40
2019-02-02T15:07:51.190Z,11.40
2019-02-02T15:10:21.146Z,11.30
2019-02-02T15:12:49.533Z,11.40
2019-02-02T15:15:17.230Z,11.40
2019-02-02T15:17:44.876Z,11.50
2019-02-02T15:20:22.083Z,11.40
2019-02-02T15:22:49.464Z,11.30
2019-02-02T15:25:17.291Z,11.40
2019-02-02T15:27:44.958Z,11.40
2019-02-02T15:30:17.029Z,11.40
2019-02-02T15:32:44.894Z,11.50
2019-02-02T15:35:14.339Z,11.40
2019-02-02T15:37:42.266Z,11.30
2019-02-02T15:40:13.984Z,11.30
2019-02-02T15:42:42.157Z,11.30
2019-02-02T15:45:12.097Z,11.30
2019-02-02T15:47:40.147Z,11.20
2019-02-02T15:50:12.410Z,11.10
2019-02-02T15:52:42.056Z,11.00
2019-02-02T15:55:13.750Z,11.10
2019-02-02T15:57:41.508Z,11.10
2019-02-02T16:00:23.861Z,11.00
2019-02-02T16:02:54.604Z,11.10
2019-02-02T16:05:22.992Z,11.20
2019-02-02T16:07:52.259Z,11.40
2019-02-02T16:10:26.151Z,11.40
2019-02-02T16:12:55.525Z,11.50
2019-02-02T16:15:25.846Z,11.50
2019-02-02T16:18:01.048Z,11.50
2019-02-02T16:20:33.768Z,11.50
2019-02-02T16:23:01.429Z,11.40
2019-02-02T16:25:30.562Z,11.30
2019-02-02T16:27:58.467Z,11.20
2019-02-02T16:30:26.975Z,11.20
2019-02-02T16:32:55.593Z,11.10
2019-02-02T16:35:23.462Z,11.10
2019-02-02T16:37:51.392Z,11.00
2019-02-02T16:40:21.683Z,11.00
2019-02-02T16:42:49.560Z,10.90
2019-02-02T16:45:23.204Z,10.90
2019-02-02T16:47:51.939Z,10.90
2019-02-02T16:50:21.518Z,10.90
2019-02-02T16:52:51.846Z,10.90
2019-02-02T16:55:19.530Z,10.90
2019-02-02T16:57:47.141Z,10.90
2019-02-02T17:00:18.520Z,10.90
2019-02-02T17:02:46.163Z,10.90
2019-02-02T17:05:13.748Z,11.00
2019-02-02T17:07:46.273Z,11.00
2019-02-02T17:10:18.017Z,10.90
2019-02-02T17:12:48.557Z,10.90
2019-02-02T17:15:17.710Z,11.00
2019-02-02T17:17:46.362Z,10.70
2019-02-02T17:20:23.836Z,10.70
2019-02-02T17:22:52.031Z,10.70
2019-02-02T17:25:22.371Z,10.80
2019-02-02T17:27:50.831Z,10.90
2019-02-02T17:30:20.623Z,11.00
2019-02-02T17:32:49.194Z,11.10
2019-02-02T17:35:16.871Z,11.20
2019-02-02T17:37:44.698Z,11.30
2019-02-02T17:40:15.882Z,11.40
2019-02-02T17:42:48.331Z,11.30
2019-02-02T17:45:18.675Z,11.40
2019-02-02T17:47:46.524Z,11.30
2019-02-02T17:50:16.799Z,11.20
2019-02-02T17:52:46.834Z,11.30
2019-02-02T17:55:15.160Z,11.10
2019-02-02T17:57:42.680Z,11.10
2019-02-02T18:00:27.588Z,11.00
2019-02-02T18:02:55.562Z,11.00
2019-02-02T18:05:26.744Z,10.90
2019-02-02T18:07:55.503Z,10.80
2019-02-02T18:10:23.164Z,10.80
2019-02-02T18:12:51.762Z,10.70
2019-02-02T18:15:21.910Z,10.70
2019-02-02T18:17:53.422Z,10.60
2019-02-02T18:20:21.484Z,10.60
2019-02-02T18:22:49.402Z,10.50
2019-02-02T18:25:16.959Z,10.50
2019-02-02T18:27:47.413Z,10.50
2019-02-02T18:30:17.915Z,10.50
2019-02-02T18:32:45.872Z,10.40
2019-02-02T18:35:14.286Z,10.40
2019-02-02T18:37:42.259Z,10.40
2019-02-02T18:40:13.370Z,10.40
2019-02-02T18:42:41.471Z,10.40
2019-02-02T18:45:12.854Z,10.50
2019-02-02T18:47:41.002Z,10.50
2019-02-02T18:50:11.896Z,10.50
2019-02-02T18:52:39.662Z,10.60
2019-02-02T18:55:11.482Z,10.60
2019-02-02T18:57:41.835Z,10.60
2019-02-02T19:00:15.029Z,10.60
2019-02-02T19:02:42.934Z,10.50
2019-02-02T19:05:10.656Z,10.70
2019-02-02T19:07:38.521Z,10.70
2019-02-02T19:10:11.107Z,10.70
2019-02-02T19:12:43.785Z,10.70
2019-02-02T19:15:11.759Z,10.80
2019-02-02T19:17:40.093Z,10.80
2019-02-02T19:23:24.277Z,10.80
2019-02-02T19:25:41.900Z,10.70
2019-02-02T19:28:09.914Z,10.80
2019-02-02T19:30:41.275Z,10.70
2019-02-02T19:33:09.977Z,10.70
2019-02-02T19:35:37.975Z,10.60
2019-02-02T19:38:06.294Z,10.50
2019-02-02T19:40:34.050Z,10.40
2019-02-02T19:43:03.755Z,10.30
2019-02-02T19:45:31.280Z,10.20
2019-02-02T19:47:59.723Z,10.00
2019-02-02T19:50:27.521Z,10.10
2019-02-02T19:52:56.105Z,10.00
2019-02-02T19:55:25.377Z,9.90
2019-02-02T19:57:53.074Z,9.80
2019-02-02T20:00:26.979Z,9.80
2019-02-02T20:02:54.920Z,9.70
2019-02-02T20:05:28.670Z,9.60
2019-02-02T20:07:53.102Z,9.50
2019-02-02T20:10:22.610Z,9.50
2019-02-02T20:12:50.683Z,9.40
2019-02-02T20:15:22.166Z,9.40
2019-02-02T20:17:51.812Z,9.40
2019-02-02T20:20:22.333Z,9.30
2019-02-02T20:22:52.719Z,9.20
2019-02-02T20:25:21.756Z,9.20
2019-02-02T20:27:49.657Z,9.20
2019-02-02T20:30:29.233Z,9.10
2019-02-02T20:32:57.565Z,9.10
2019-02-02T20:35:25.359Z,9.00
2019-02-02T20:37:55.197Z,9.00
2019-02-02T20:40:24.028Z,8.90
2019-02-02T20:42:51.781Z,8.80
2019-02-02T20:45:22.724Z,8.80
2019-02-02T20:47:55.533Z,8.70
2019-02-02T20:50:24.373Z,8.70
2019-02-02T20:52:55.201Z,8.70
2019-02-02T20:55:30.897Z,8.70
2019-02-02T20:58:04.627Z,8.70
2019-02-02T21:00:37.321Z,8.70
2019-02-02T21:03:06.032Z,8.60
2019-02-02T21:05:34.663Z,8.60
2019-02-02T21:08:07.834Z,8.70
2019-02-02T21:10:38.659Z,8.50
2019-02-02T21:13:06.785Z,8.40
2019-02-02T21:15:35.932Z,8.30
2019-02-02T21:18:04.835Z,8.30
2019-02-02T21:20:33.173Z,8.40
2019-02-02T21:23:00.969Z,8.30
2019-02-02T21:25:28.765Z,8.20
2019-02-02T21:27:56.843Z,8.10
2019-02-02T21:30:32.301Z,8.00
2019-02-02T21:33:01.503Z,8.00
2019-02-02T21:35:30.374Z,7.90
2019-02-02T21:37:58.646Z,7.80
2019-02-02T21:40:29.378Z,7.70
2019-02-02T21:42:57.428Z,7.70
2019-02-02T21:45:25.090Z,7.70
2019-02-02T21:47:53.159Z,7.70
2019-02-02T21:50:22.352Z,7.60
2019-02-02T21:52:50.241Z,7.50
2019-02-02T21:55:20.982Z,7.40
2019-02-02T21:57:48.887Z,7.40
2019-02-02T22:00:21.088Z,7.30
2019-02-02T22:02:48.900Z,7.40
2019-02-02T22:05:16.795Z,7.40
2019-02-02T22:07:47.324Z,7.40
2019-02-02T22:10:16.252Z,7.40
2019-02-02T22:12:44.560Z,7.40
2019-02-02T22:15:17.661Z,7.40
2019-02-02T22:17:45.849Z,7.40
2019-02-02T22:20:13.846Z,7.40
2019-02-02T22:22:41.503Z,7.40
2019-02-02T22:25:15.844Z,7.50
2019-02-02T22:27:44.094Z,7.50
2019-02-02T22:30:16.157Z,7.40
2019-02-02T22:32:43.964Z,7.60
2019-02-02T22:35:11.812Z,7.70
2019-02-02T22:37:39.648Z,7.70
2019-02-02T22:40:10.483Z,7.70
2019-02-02T22:42:39.004Z,7.70
2019-02-02T22:45:11.630Z,7.80
2019-02-02T22:47:39.388Z,7.80
2019-02-02T22:50:09.134Z,7.80
2019-02-02T22:52:38.042Z,7.80
2019-02-02T22:55:08.576Z,7.80
2019-02-02T22:57:36.292Z,7.90
2019-02-02T23:00:24.312Z,8.20
2019-02-02T23:02:53.062Z,8.10
2019-02-02T23:05:37.724Z,8.30
2019-02-02T23:09:21.419Z,8.30
2019-02-02T23:12:26.218Z,8.40
2019-02-02T23:15:43.393Z,8.40
2019-02-02T23:18:11.158Z,8.30
2019-02-02T23:20:38.780Z,8.40
2019-02-02T23:23:06.728Z,8.50
2019-02-02T23:25:34.773Z,8.30
2019-02-02T23:28:02.414Z,8.40
2019-02-02T23:30:30.069Z,8.40
2019-02-02T23:32:57.869Z,8.30
2019-02-02T23:35:25.778Z,8.30
2019-02-02T23:37:53.599Z,8.30
2019-02-02T23:40:21.156Z,8.20
2019-02-02T23:42:49.059Z,8.10
2019-02-02T23:45:16.761Z,8.00
2019-02-02T23:47:44.519Z,7.90
2019-02-02T23:50:12.246Z,8.10
2019-02-02T23:52:39.813Z,8.00
2019-02-02T23:55:07.636Z,8.00
2019-02-02T23:57:35.518Z,8.00
